createdAt,value
2022-10-24T00:01:35.534Z,10.44
2022-10-24T00:04:03.371Z,10.42
2022-10-24T00:06:32.500Z,10.42
2022-10-24T00:09:00.153Z,10.41
2022-10-24T00:11:28.554Z,10.34
2022-10-24T00:13:56.798Z,10.35
2022-10-24T00:16:24.424Z,10.33
2022-10-24T00:18:53.608Z,10.25
2022-10-24T00:21:21.628Z,10.20
2022-10-24T00:23:55.773Z,10.22
2022-10-24T00:26:23.320Z,10.19
2022-10-24T00:28:52.558Z,10.15
2022-10-24T00:31:24.459Z,10.18
2022-10-24T00:33:52.160Z,10.20
2022-10-24T00:36:21.757Z,10.21
2022-10-24T00:38:51.641Z,10.22
2022-10-24T00:41:24.867Z,10.29
2022-10-24T00:44:13.778Z,10.32
2022-10-24T00:47:02.083Z,10.30
2022-10-24T00:49:32.375Z,10.23
2022-10-24T00:52:04.380Z,10.18
2022-10-24T00:54:32.165Z,10.18
2022-10-24T00:57:18.433Z,10.16
2022-10-24T00:59:50.915Z,10.02
2022-10-24T01:02:18.585Z,10.10
2022-10-24T01:04:48.552Z,10.11
2022-10-24T01:07:23.711Z,10.07
2022-10-24T01:10:16.638Z,10.02
2022-10-24T01:12:50.210Z,10.10
2022-10-24T01:15:26.868Z,10.05
2022-10-24T01:18:01.727Z,10.02
2022-10-24T01:20:44.787Z,10.01
2022-10-24T01:23:40.769Z,10.04
2022-10-24T01:26:45.906Z,9.95
2022-10-24T01:30:00.441Z,9.94
2022-10-24T01:32:41.170Z,9.90
2022-10-24T01:35:14.860Z,9.91
2022-10-24T01:38:09.343Z,9.92
2022-10-24T01:40:50.937Z,9.88
2022-10-24T01:43:22.637Z,9.84
2022-10-24T01:45:53.803Z,9.88
2022-10-24T01:48:22.056Z,9.90
2022-10-24T01:50:50.181Z,9.98
2022-10-24T01:53:22.521Z,9.92
2022-10-24T01:55:52.764Z,9.88
2022-10-24T01:58:20.390Z,9.88
2022-10-24T02:00:48.390Z,9.91
2022-10-24T02:03:23.512Z,9.90
2022-10-24T02:05:54.205Z,9.86
2022-10-24T02:08:31.231Z,9.85
2022-10-24T02:11:01.733Z,9.86
2022-10-24T02:13:35.113Z,9.74
2022-10-24T02:16:05.171Z,9.73
2022-10-24T02:18:33.331Z,9.79
2022-10-24T02:21:39.585Z,9.77
2022-10-24T02:24:17.421Z,9.78
2022-10-24T02:26:52.552Z,9.77
2022-10-24T02:29:40.526Z,9.76
2022-10-24T02:32:11.454Z,9.79
2022-10-24T02:34:39.348Z,9.82
2022-10-24T02:37:06.987Z,9.73
2022-10-24T02:39:34.577Z,9.75
2022-10-24T02:42:03.071Z,9.75
2022-10-24T02:44:30.728Z,9.72
2022-10-24T02:46:59.698Z,9.76
2022-10-24T02:49:28.259Z,9.78
2022-10-24T02:51:56.782Z,9.78
2022-10-24T02:54:24.824Z,9.77
2022-10-24T02:56:53.454Z,9.78
2022-10-24T02:59:21.035Z,9.79
2022-10-24T03:01:48.687Z,9.77
2022-10-24T03:04:16.680Z,9.78
2022-10-24T03:06:44.347Z,9.80
2022-10-24T03:09:15.379Z,9.83
2022-10-24T03:11:43.024Z,9.79
2022-10-24T03:14:11.113Z,9.78
2022-10-24T03:16:39.861Z,9.80
2022-10-24T03:19:08.620Z,9.85
2022-10-24T03:21:36.967Z,9.83
2022-10-24T03:24:04.929Z,9.84
2022-10-24T03:26:34.641Z,9.88
2022-10-24T03:29:02.368Z,9.88
2022-10-24T03:31:31.776Z,9.88
2022-10-24T03:33:59.377Z,9.92
2022-10-24T03:36:27.558Z,9.90
2022-10-24T03:38:55.265Z,9.95
2022-10-24T03:41:22.854Z,9.99
2022-10-24T03:43:51.252Z,10.00
2022-10-24T03:46:19.731Z,10.03
2022-10-24T03:48:47.393Z,10.07
2022-10-24T03:51:15.815Z,10.07
2022-10-24T03:53:43.487Z,10.09
2022-10-24T03:56:11.359Z,10.11
2022-10-24T03:58:38.976Z,10.11
2022-10-24T04:01:06.785Z,10.14
2022-10-24T04:03:34.408Z,10.19
2022-10-24T04:06:02.047Z,10.18
2022-10-24T04:08:31.835Z,10.26
2022-10-24T04:11:00.996Z,10.31
2022-10-24T04:13:31.708Z,10.40
2022-10-24T04:16:01.189Z,10.39
2022-10-24T04:18:29.516Z,10.42
2022-10-24T04:20:57.186Z,10.43
2022-10-24T04:23:25.761Z,10.49
2022-10-24T04:25:53.766Z,10.50
2022-10-24T04:28:21.514Z,10.44
2022-10-24T04:30:57.259Z,10.49
2022-10-24T04:33:25.011Z,10.48
2022-10-24T04:35:52.711Z,10.55
2022-10-24T04:38:20.612Z,10.49
2022-10-24T04:40:52.606Z,10.55
2022-10-24T04:43:20.702Z,10.60
2022-10-24T04:45:48.443Z,10.59
2022-10-24T04:48:16.219Z,10.61
2022-10-24T04:50:45.175Z,10.64
2022-10-24T04:53:14.261Z,10.61
2022-10-24T04:55:43.292Z,10.63
2022-10-24T04:58:10.963Z,10.59
2022-10-24T05:00:39.565Z,10.51
2022-10-24T05:03:07.153Z,10.46
2022-10-24T05:05:35.240Z,10.41
2022-10-24T05:08:03.334Z,10.37
2022-10-24T05:10:33.198Z,10.39
2022-10-24T05:13:14.283Z,10.38
2022-10-24T05:15:43.786Z,10.42
2022-10-24T05:18:11.542Z,10.42
2022-10-24T05:23:09.649Z,10.39
2022-10-24T05:25:37.237Z,10.40
2022-10-24T05:28:05.936Z,10.46
2022-10-24T05:30:34.130Z,10.50
2022-10-24T05:33:01.962Z,10.55
2022-10-24T05:35:29.974Z,10.80
2022-10-24T05:37:57.592Z,10.96
2022-10-24T05:40:25.300Z,10.95
2022-10-24T05:42:53.284Z,10.94
2022-10-24T05:45:21.240Z,10.99
2022-10-24T05:47:49.151Z,10.95
2022-10-24T05:50:17.391Z,11.09
2022-10-24T05:52:47.141Z,11.08
2022-10-24T05:55:17.896Z,11.09
2022-10-24T05:57:46.332Z,11.15
2022-10-24T06:00:15.207Z,11.20
2022-10-24T06:02:43.356Z,11.28
2022-10-24T06:05:11.610Z,11.36
2022-10-24T06:07:39.791Z,11.31
2022-10-24T06:10:10.597Z,11.32
2022-10-24T06:12:39.539Z,11.48
2022-10-24T06:15:08.740Z,11.39
2022-10-24T06:17:36.486Z,11.37
2022-10-24T06:20:04.704Z,11.31
2022-10-24T06:22:33.080Z,11.29
2022-10-24T06:25:01.757Z,11.39
2022-10-24T06:27:29.583Z,11.47
2022-10-24T06:29:59.153Z,11.56
2022-10-24T06:32:27.001Z,11.69
2022-10-24T06:34:54.582Z,11.82
2022-10-24T06:37:23.044Z,11.88
2022-10-24T06:39:50.581Z,12.02
2022-10-24T06:42:18.196Z,12.21
2022-10-24T06:44:46.373Z,12.34
2022-10-24T06:47:14.061Z,12.27
2022-10-24T06:49:42.989Z,12.23
2022-10-24T06:52:11.050Z,12.30
2022-10-24T06:54:43.899Z,12.34
2022-10-24T06:57:11.536Z,12.27
2022-10-24T06:59:39.091Z,12.25
2022-10-24T07:02:07.248Z,12.21
2022-10-24T07:04:35.240Z,12.26
2022-10-24T07:07:03.463Z,12.27
2022-10-24T07:09:31.189Z,12.25
2022-10-24T07:11:59.584Z,12.23
2022-10-24T07:14:30.203Z,12.30
2022-10-24T07:16:59.666Z,12.57
2022-10-24T07:19:27.302Z,12.72
2022-10-24T07:21:55.544Z,12.61
2022-10-24T07:24:23.286Z,12.54
2022-10-24T07:26:50.990Z,12.56
2022-10-24T07:29:22.888Z,12.78
2022-10-24T07:31:50.790Z,12.72
2022-10-24T07:34:18.506Z,12.67
2022-10-24T07:36:46.309Z,12.75
2022-10-24T07:39:14.309Z,12.88
2022-10-24T07:41:43.162Z,12.97
2022-10-24T07:44:11.431Z,12.96
2022-10-24T07:46:43.162Z,12.92
2022-10-24T07:49:13.197Z,13.23
2022-10-24T07:51:41.786Z,13.07
2022-10-24T07:54:09.835Z,13.11
2022-10-24T07:56:37.957Z,13.23
2022-10-24T07:59:09.409Z,13.20
2022-10-24T08:01:41.725Z,13.23
2022-10-24T08:04:10.439Z,13.40
2022-10-24T08:06:38.168Z,13.42
2022-10-24T08:09:06.238Z,13.52
2022-10-24T08:11:34.528Z,13.54
2022-10-24T08:14:02.656Z,13.70
2022-10-24T08:16:30.552Z,13.65
2022-10-24T08:18:58.342Z,13.61
2022-10-24T08:21:26.939Z,13.83
2022-10-24T08:23:55.870Z,13.76
2022-10-24T08:26:24.750Z,13.90
2022-10-24T08:28:52.530Z,13.88
2022-10-24T08:31:21.642Z,14.08
2022-10-24T08:33:51.275Z,14.04
2022-10-24T08:36:23.734Z,13.98
2022-10-24T08:38:51.889Z,14.07
2022-10-24T08:41:30.060Z,14.00
2022-10-24T08:44:01.003Z,14.00
2022-10-24T08:46:44.408Z,13.96
2022-10-24T08:49:29.556Z,13.79
2022-10-24T08:52:01.160Z,13.78
2022-10-24T08:54:39.383Z,13.59
2022-10-24T08:57:06.956Z,13.44
2022-10-24T08:59:36.279Z,13.61
2022-10-24T09:02:26.040Z,13.67
2022-10-24T09:04:57.556Z,13.73
2022-10-24T09:07:29.353Z,13.97
2022-10-24T09:10:45.041Z,14.02
2022-10-24T09:13:14.740Z,13.82
2022-10-24T09:15:45.284Z,13.70
2022-10-24T09:18:24.857Z,13.71
2022-10-24T09:20:54.657Z,13.74
2022-10-24T09:23:26.375Z,13.78
2022-10-24T09:26:00.616Z,14.00
2022-10-24T09:28:38.329Z,14.05
2022-10-24T09:31:20.259Z,14.06
2022-10-24T09:33:49.524Z,14.07
2022-10-24T09:36:20.302Z,14.09
2022-10-24T09:38:49.351Z,14.33
2022-10-24T09:41:22.753Z,14.27
2022-10-24T09:43:56.979Z,14.11
2022-10-24T09:46:29.440Z,14.04
2022-10-24T09:49:04.128Z,13.93
2022-10-24T09:51:41.383Z,13.80
2022-10-24T09:54:21.424Z,13.89
2022-10-24T09:56:55.103Z,14.08
2022-10-24T09:59:44.457Z,14.10
2022-10-24T10:02:20.165Z,13.97
2022-10-24T10:04:49.516Z,14.05
2022-10-24T10:07:19.277Z,14.26
2022-10-24T10:10:00.587Z,14.37
2022-10-24T10:12:34.901Z,14.54
2022-10-24T10:15:23.545Z,14.45
2022-10-24T10:18:05.847Z,14.48
2022-10-24T10:20:43.082Z,14.21
2022-10-24T10:23:17.671Z,14.18
2022-10-24T10:25:45.551Z,14.25
2022-10-24T10:28:23.545Z,14.50
2022-10-24T10:30:56.037Z,14.45
2022-10-24T10:36:20.059Z,14.27
2022-10-24T10:38:58.002Z,14.09
2022-10-24T10:41:40.262Z,14.10
2022-10-24T10:44:20.853Z,14.26
2022-10-24T10:47:04.497Z,14.13
2022-10-24T10:49:40.812Z,14.09
2022-10-24T10:52:26.092Z,14.17
2022-10-24T10:55:02.773Z,14.34
2022-10-24T10:57:36.857Z,14.47
2022-10-24T11:00:31.196Z,14.40
2022-10-24T11:03:17.605Z,14.19
2022-10-24T11:06:09.120Z,14.59
2022-10-24T11:08:44.746Z,14.75
2022-10-24T11:11:17.825Z,14.99
2022-10-24T11:13:50.141Z,14.97
2022-10-24T11:16:22.944Z,14.84
2022-10-24T11:18:52.225Z,14.71
2022-10-24T11:21:21.391Z,14.58
2022-10-24T11:24:01.890Z,14.62
2022-10-24T11:26:42.533Z,14.75
2022-10-24T11:29:35.245Z,14.80
2022-10-24T11:34:43.181Z,15.11
2022-10-24T11:37:39.397Z,15.07
2022-10-24T11:40:12.166Z,14.94
2022-10-24T11:43:07.570Z,14.56
2022-10-24T11:45:53.886Z,14.68
2022-10-24T11:48:42.678Z,14.71
2022-10-24T11:51:42.490Z,15.02
2022-10-24T11:54:32.212Z,15.44
2022-10-24T11:59:46.840Z,16.00
2022-10-24T12:02:49.153Z,16.23
2022-10-24T12:05:46.265Z,16.27
2022-10-24T12:08:34.290Z,16.63
2022-10-24T12:11:12.798Z,16.81
2022-10-24T12:14:11.182Z,17.02
2022-10-24T12:17:00.921Z,16.89
2022-10-24T12:19:29.071Z,17.26
2022-10-24T12:22:01.781Z,17.14
2022-10-24T12:24:34.722Z,17.37
2022-10-24T12:27:04.191Z,17.67
2022-10-24T12:29:33.858Z,17.65
2022-10-24T12:32:33.337Z,17.37
2022-10-24T12:35:28.854Z,16.90
2022-10-24T12:37:50.317Z,16.58
2022-10-24T12:40:45.351Z,16.31
2022-10-24T12:43:32.655Z,16.30
2022-10-24T12:46:21.641Z,15.93
2022-10-24T12:48:59.260Z,15.59
2022-10-24T12:51:36.571Z,15.43
2022-10-24T12:54:13.642Z,15.42
2022-10-24T12:56:50.469Z,15.39
2022-10-24T12:59:21.869Z,15.33
2022-10-24T13:01:50.796Z,15.95
2022-10-24T13:05:06.516Z,16.24
2022-10-24T13:07:46.114Z,15.98
2022-10-24T13:10:31.977Z,15.73
2022-10-24T13:13:11.922Z,15.52
2022-10-24T13:15:43.421Z,15.42
2022-10-24T13:18:35.874Z,15.19
2022-10-24T13:21:16.548Z,15.06
2022-10-24T13:23:46.274Z,14.91
2022-10-24T13:26:47.544Z,14.87
2022-10-24T13:29:23.966Z,14.79
2022-10-24T13:31:53.309Z,14.68
2022-10-24T13:34:24.062Z,14.65
2022-10-24T13:37:12.820Z,14.69
2022-10-24T13:39:49.784Z,14.60
2022-10-24T13:42:24.703Z,14.56
2022-10-24T13:44:54.880Z,14.58
2022-10-24T13:47:43.374Z,14.59
2022-10-24T13:50:25.208Z,14.53
2022-10-24T13:52:58.052Z,14.47
2022-10-24T13:55:29.730Z,14.32
2022-10-24T13:58:00.899Z,14.42
2022-10-24T14:00:30.986Z,14.31
2022-10-24T14:03:01.037Z,14.32
2022-10-24T14:05:35.205Z,14.30
2022-10-24T14:08:02.989Z,14.30
2022-10-24T14:10:31.298Z,14.29
2022-10-24T14:12:59.315Z,14.26
2022-10-24T14:15:33.121Z,14.23
2022-10-24T14:18:13.302Z,14.15
2022-10-24T14:20:41.167Z,14.09
2022-10-24T14:23:38.057Z,14.02
2022-10-24T14:26:08.041Z,13.98
2022-10-24T14:28:45.135Z,13.95
2022-10-24T14:31:31.255Z,13.89
2022-10-24T14:33:58.956Z,13.76
2022-10-24T14:36:31.532Z,13.75
2022-10-24T14:39:01.130Z,13.60
2022-10-24T14:41:40.935Z,13.59
2022-10-24T14:44:08.626Z,13.56
2022-10-24T14:46:38.113Z,13.57
2022-10-24T14:49:38.245Z,13.51
2022-10-24T14:52:36.695Z,13.43
2022-10-24T14:55:13.700Z,13.41
2022-10-24T14:57:46.695Z,13.40
2022-10-24T15:00:20.652Z,13.38
2022-10-24T15:02:49.438Z,13.30
2022-10-24T15:05:20.003Z,13.23
2022-10-24T15:08:09.164Z,13.22
2022-10-24T15:10:41.611Z,13.15
2022-10-24T15:13:25.621Z,13.14
2022-10-24T15:15:58.140Z,13.11
2022-10-24T15:18:30.870Z,13.00
2022-10-24T15:21:01.983Z,12.96
2022-10-24T15:23:35.438Z,12.98
2022-10-24T15:26:20.766Z,13.01
2022-10-24T15:29:12.781Z,12.95
2022-10-24T15:31:42.288Z,12.95
2022-10-24T15:34:20.040Z,13.04
2022-10-24T15:36:48.986Z,13.03
2022-10-24T15:39:22.361Z,13.02
2022-10-24T15:41:51.119Z,13.01
2022-10-24T15:44:26.703Z,13.05
2022-10-24T15:46:55.088Z,13.01
2022-10-24T15:49:22.768Z,12.96
2022-10-24T15:51:50.752Z,12.95
2022-10-24T15:54:21.928Z,12.92
2022-10-24T15:56:50.548Z,12.87
2022-10-24T15:59:20.308Z,12.81
2022-10-24T16:01:58.207Z,12.78
2022-10-24T16:04:26.992Z,12.77
2022-10-24T16:06:56.100Z,12.64
2022-10-24T16:09:27.744Z,12.68
2022-10-24T16:11:55.327Z,12.73
2022-10-24T16:14:26.273Z,12.77
2022-10-24T16:16:55.367Z,12.84
2022-10-24T16:19:25.924Z,12.86
2022-10-24T16:21:58.535Z,12.84
2022-10-24T16:24:26.904Z,12.83
2022-10-24T16:26:55.271Z,12.82
2022-10-24T16:29:22.944Z,12.81
2022-10-24T16:31:51.173Z,12.77
2022-10-24T16:34:19.032Z,12.74
2022-10-24T16:36:47.967Z,12.73
2022-10-24T16:39:16.540Z,12.69
2022-10-24T16:41:46.367Z,12.67
2022-10-24T16:44:20.109Z,12.63
2022-10-24T16:46:48.813Z,12.63
2022-10-24T16:49:21.186Z,12.55
2022-10-24T16:51:49.683Z,12.49
2022-10-24T16:54:19.596Z,12.52
2022-10-24T16:56:53.385Z,12.50
2022-10-24T16:59:21.682Z,12.46
2022-10-24T17:01:49.534Z,12.43
2022-10-24T17:04:17.244Z,12.44
2022-10-24T17:06:46.204Z,12.40
2022-10-24T17:09:14.719Z,12.35
2022-10-24T17:11:46.453Z,12.27
2022-10-24T17:14:14.763Z,12.15
2022-10-24T17:16:43.130Z,11.97
2022-10-24T17:19:17.419Z,11.88
2022-10-24T17:21:48.985Z,11.76
2022-10-24T17:24:18.259Z,11.63
2022-10-24T17:26:46.029Z,11.49
2022-10-24T17:29:25.115Z,11.31
2022-10-24T17:31:54.238Z,11.10
2022-10-24T17:34:22.625Z,10.93
2022-10-24T17:36:54.578Z,10.80
2022-10-24T17:41:57.582Z,10.55
2022-10-24T17:44:25.596Z,10.44
2022-10-24T17:46:57.431Z,10.30
2022-10-24T17:49:27.160Z,10.20
2022-10-24T17:51:54.812Z,10.11
2022-10-24T17:54:22.580Z,10.01
2022-10-24T17:56:50.395Z,9.84
2022-10-24T17:59:18.040Z,9.74
2022-10-24T18:01:45.737Z,9.73
2022-10-24T18:04:13.735Z,9.69
2022-10-24T18:06:43.465Z,9.62
2022-10-24T18:09:11.793Z,9.55
2022-10-24T18:11:40.491Z,9.45
2022-10-24T18:14:08.351Z,9.50
2022-10-24T18:16:38.237Z,9.52
2022-10-24T18:19:07.451Z,9.55
2022-10-24T18:21:36.450Z,9.53
2022-10-24T18:24:06.348Z,9.53
2022-10-24T18:26:34.569Z,9.49
2022-10-24T18:29:02.220Z,9.49
2022-10-24T18:31:30.525Z,9.43
2022-10-24T18:34:04.782Z,9.40
2022-10-24T18:36:36.549Z,9.35
2022-10-24T18:39:04.800Z,9.33
2022-10-24T18:42:05.898Z,9.27
2022-10-24T18:44:35.098Z,9.28
2022-10-24T18:47:04.545Z,9.29
2022-10-24T18:49:33.850Z,9.26
2022-10-24T18:52:10.473Z,9.28
2022-10-24T18:54:59.966Z,9.29
2022-10-24T18:57:31.945Z,9.29
2022-10-24T19:00:00.130Z,9.31
2022-10-24T19:02:32.240Z,9.36
2022-10-24T19:05:18.797Z,9.47
2022-10-24T19:07:47.332Z,9.55
2022-10-24T19:10:20.716Z,9.66
2022-10-24T19:12:49.834Z,9.72
2022-10-24T19:15:18.196Z,9.79
2022-10-24T19:18:06.235Z,9.88
2022-10-24T19:20:35.735Z,9.95
2022-10-24T19:23:07.593Z,10.04
2022-10-24T19:25:35.483Z,10.13
2022-10-24T19:28:03.973Z,10.15
2022-10-24T19:30:31.801Z,10.24
2022-10-24T19:33:01.034Z,10.32
2022-10-24T19:35:28.664Z,10.39
2022-10-24T19:37:56.728Z,10.43
2022-10-24T19:40:24.478Z,10.46
2022-10-24T19:42:52.658Z,10.52
2022-10-24T19:45:22.877Z,10.55
2022-10-24T19:47:56.011Z,10.62
2022-10-24T19:50:24.049Z,10.63
2022-10-24T19:52:52.030Z,10.67
2022-10-24T19:55:19.666Z,10.70
2022-10-24T19:57:47.614Z,10.70
2022-10-24T20:00:15.631Z,10.75
2022-10-24T20:02:43.687Z,10.75
2022-10-24T20:05:11.536Z,10.77
2022-10-24T20:07:39.219Z,10.79
2022-10-24T20:10:08.804Z,10.85
2022-10-24T20:12:36.753Z,10.90
2022-10-24T20:15:05.274Z,10.93
2022-10-24T20:17:32.984Z,10.94
2022-10-24T20:20:00.783Z,10.96
2022-10-24T20:22:29.151Z,10.98
2022-10-24T20:24:57.838Z,10.98
2022-10-24T20:27:25.556Z,10.98
2022-10-24T20:29:53.419Z,11.01
2022-10-24T20:32:21.204Z,11.04
2022-10-24T20:34:48.863Z,11.05
2022-10-24T20:37:17.106Z,11.08
2022-10-24T20:39:44.762Z,11.12
2022-10-24T20:42:12.384Z,11.11
2022-10-24T20:44:41.273Z,11.12
2022-10-24T20:47:08.877Z,11.13
2022-10-24T20:49:36.444Z,11.13
2022-10-24T20:52:04.161Z,11.11
2022-10-24T20:54:32.025Z,11.14
2022-10-24T20:56:59.872Z,11.10
2022-10-24T20:59:27.563Z,11.09
2022-10-24T21:01:55.364Z,11.13
2022-10-24T21:04:23.139Z,11.15
2022-10-24T21:06:50.741Z,11.19
2022-10-24T21:09:18.799Z,11.19
2022-10-24T21:11:50.863Z,11.19
2022-10-24T21:14:20.820Z,11.20
2022-10-24T21:16:49.919Z,11.22
2022-10-24T21:19:17.796Z,11.31
2022-10-24T21:21:46.104Z,11.38
2022-10-24T21:24:15.120Z,11.46
2022-10-24T21:26:43.069Z,11.52
2022-10-24T21:31:58.596Z,11.60
2022-10-24T21:34:27.797Z,11.65
2022-10-24T21:36:59.161Z,11.68
2022-10-24T21:39:26.809Z,11.69
2022-10-24T21:41:54.406Z,11.69
2022-10-24T21:44:23.486Z,11.71
2022-10-24T21:46:52.174Z,11.72
2022-10-24T21:49:20.855Z,11.69
2022-10-24T21:51:48.649Z,11.67
2022-10-24T21:54:19.227Z,11.71
2022-10-24T21:56:47.140Z,11.72
2022-10-24T21:59:16.482Z,11.71
2022-10-24T22:01:45.168Z,11.76
2022-10-24T22:04:13.454Z,11.80
2022-10-24T22:06:42.992Z,11.83
2022-10-24T22:09:13.053Z,11.84
2022-10-24T22:11:41.903Z,11.84
2022-10-24T22:14:10.710Z,11.82
2022-10-24T22:16:40.687Z,11.79
2022-10-24T22:19:08.497Z,11.78
2022-10-24T22:21:37.846Z,11.75
2022-10-24T22:26:35.214Z,11.77
2022-10-24T22:29:03.034Z,11.77
2022-10-24T22:31:31.844Z,11.77
2022-10-24T22:33:59.669Z,11.81
2022-10-24T22:37:01.454Z,11.79
2022-10-24T22:39:29.354Z,11.76
2022-10-24T22:41:57.321Z,11.79
2022-10-24T22:44:25.209Z,11.82
2022-10-24T22:47:19.821Z,11.81
2022-10-24T22:49:59.992Z,11.81
2022-10-24T22:52:28.229Z,11.82
2022-10-24T22:54:57.080Z,11.82
2022-10-24T22:57:25.217Z,11.78
2022-10-24T22:59:53.049Z,11.77
2022-10-24T23:02:27.860Z,11.78
2022-10-24T23:04:58.457Z,11.77
2022-10-24T23:07:42.809Z,11.74
2022-10-24T23:10:11.533Z,11.74
2022-10-24T23:12:42.405Z,11.72
2022-10-24T23:15:13.646Z,11.76
2022-10-24T23:17:41.582Z,11.74
2022-10-24T23:20:17.297Z,11.72
2022-10-24T23:22:46.697Z,11.66
2022-10-24T23:25:18.942Z,11.59
2022-10-24T23:27:47.099Z,11.54
2022-10-24T23:30:17.372Z,11.49
2022-10-24T23:32:46.164Z,11.44
2022-10-24T23:35:14.468Z,11.43
2022-10-24T23:37:43.962Z,11.39
2022-10-24T23:40:11.758Z,11.37
2022-10-24T23:42:39.546Z,11.33
2022-10-24T23:45:12.829Z,11.31
2022-10-24T23:47:59.109Z,11.28
2022-10-24T23:50:34.697Z,11.22
2022-10-24T23:53:23.936Z,11.15
2022-10-24T23:55:51.973Z,11.10
2022-10-24T23:58:19.648Z,11.08
